Time;durP1;ratioP1;P1;durP2;ratioP2;P2;SDS_P1;SDS_P2;PMS_P1;PMS_P2;Temp;Humidity;BMP_temperature;BMP_pressure;BME280_temperature;BME280_humidity;BME280_pressure;Samples;Min_cycle;Max_cycle;Signal;HPM_P1;HPM_P2
2024/02/08 00:00:45;;;;;;;2.97;1.20;;;20.80;34.30;;;;;;5052154;28;20052;-54
2024/02/08 00:03:13;;;;;;;3.67;1.45;;;20.80;34.20;;;;;;5052793;28;20100;-55
2024/02/08 00:05:40;;;;;;;2.97;1.17;;;20.80;34.20;;;;;;5051955;28;20637;-53
2024/02/08 00:08:06;;;;;;;2.85;1.20;;;20.80;34.20;;;;;;5052765;28;20098;-54
2024/02/08 00:10:33;;;;;;;3.45;1.23;;;20.80;34.20;;;;;;5052009;28;20351;-54
2024/02/08 00:12:58;;;;;;;3.25;1.35;;;20.80;34.20;;;;;;5051824;28;20403;-56
2024/02/08 00:15:25;;;;;;;4.75;1.38;;;20.80;34.30;;;;;;5052123;28;20025;-57
2024/02/08 00:17:51;;;;;;;2.85;1.20;;;20.70;34.20;;;;;;5051652;28;20052;-56
2024/02/08 00:20:17;;;;;;;2.47;1.10;;;20.80;34.20;;;;;;5052095;28;20082;-55
2024/02/08 00:22:43;;;;;;;3.22;1.30;;;20.70;34.20;;;;;;5053539;28;20439;-56
2024/02/08 00:25:10;;;;;;;3.45;1.30;;;20.70;34.20;;;;;;5052027;28;20025;-55
2024/02/08 00:27:36;;;;;;;3.42;1.40;;;20.70;34.20;;;;;;5051388;28;20025;-52
2024/02/08 00:30:02;;;;;;;2.80;1.33;;;20.70;34.20;;;;;;5052016;28;20101;-54
2024/02/08 00:32:28;;;;;;;3.80;1.30;;;20.70;34.20;;;;;;5052049;28;20108;-54
2024/02/08 00:34:54;;;;;;;2.85;1.42;;;20.70;34.20;;;;;;5052177;28;20029;-56
2024/02/08 00:37:20;;;;;;;5.20;1.63;;;20.60;34.10;;;;;;5068126;28;20467;-54
2024/02/08 00:39:46;;;;;;;2.92;1.10;;;20.70;34.20;;;;;;5052007;28;20182;-55
2024/02/08 00:42:12;;;;;;;3.55;1.25;;;20.70;34.20;;;;;;5051540;28;20086;-54
2024/02/08 00:44:41;;;;;;;3.38;0.98;;;20.70;34.20;;;;;;5051748;28;20029;-53
2024/02/08 00:47:11;;;;;;;3.28;1.30;;;20.70;34.20;;;;;;5051620;28;20016;-56
2024/02/08 00:49:40;;;;;;;3.15;1.20;;;20.60;34.10;;;;;;5051940;28;20447;-56
2024/02/08 00:52:07;;;;;;;2.70;1.10;;;20.60;34.20;;;;;;5051217;28;20044;-56
2024/02/08 00:54:36;;;;;;;2.22;0.85;;;20.60;34.20;;;;;;5051491;28;20453;-56
2024/02/08 00:57:10;;;;;;;2.15;1.00;;;20.70;34.20;;;;;;5051142;28;20029;-54
2024/02/08 00:59:37;;;;;;;2.35;0.98;;;20.60;34.10;;;;;;5054146;28;20032;-57
2024/02/08 01:02:09;;;;;;;1.75;1.02;;;20.60;34.20;;;;;;5055418;28;20029;-55
2024/02/08 01:04:35;;;;;;;3.25;1.17;;;20.60;34.20;;;;;;5055444;28;20024;-56
2024/02/08 01:07:01;;;;;;;2.55;0.95;;;20.60;34.20;;;;;;5055807;28;20043;-55
2024/02/08 01:09:27;;;;;;;2.28;0.70;;;20.60;34.20;;;;;;5055273;28;20032;-55
2024/02/08 01:11:53;;;;;;;3.85;1.33;;;20.60;34.20;;;;;;5055010;28;20056;-55
2024/02/08 01:14:21;;;;;;;3.03;1.00;;;20.60;34.20;;;;;;5055168;28;20037;-55
2024/02/08 01:17:07;;;;;;;2.90;1.17;;;20.60;34.10;;;;;;5053011;28;20045;-57
2024/02/08 01:19:33;;;;;;;2.65;0.90;;;20.60;34.10;;;;;;5053482;28;20117;-56
2024/02/08 01:21:59;;;;;;;3.20;1.13;;;20.60;34.10;;;;;;5055245;28;20121;-56
2024/02/08 01:24:25;;;;;;;2.20;0.90;;;20.60;34.10;;;;;;5054660;28;20107;-52
2024/02/08 01:26:51;;;;;;;2.80;1.00;;;20.50;34.10;;;;;;5054935;28;20079;-55
2024/02/08 01:29:18;;;;;;;2.97;0.95;;;20.50;34.10;;;;;;5054801;28;20115;-54
2024/02/08 01:31:44;;;;;;;2.38;0.90;;;20.50;34.10;;;;;;5054720;28;20470;-57
2024/02/08 01:34:10;;;;;;;3.42;1.02;;;20.50;34.10;;;;;;5054240;28;20031;-54
2024/02/08 01:36:39;;;;;;;2.20;0.82;;;20.50;34.10;;;;;;5054377;28;20505;-56
2024/02/08 01:39:07;;;;;;;2.05;0.90;;;20.50;34.10;;;;;;5054658;28;20029;-56
2024/02/08 01:41:34;;;;;;;1.77;0.85;;;20.50;34.10;;;;;;5054115;28;20071;-58
2024/02/08 01:44:07;;;;;;;3.20;1.02;;;20.50;34.10;;;;;;5036217;28;20033;-56
2024/02/08 01:46:38;;;;;;;2.17;0.95;;;20.50;34.10;;;;;;5054354;28;20360;-52
2024/02/08 01:49:09;;;;;;;2.30;1.08;;;20.50;34.10;;;;;;5054480;28;20056;-55
2024/02/08 01:51:36;;;;;;;3.70;1.10;;;20.40;34.10;;;;;;5054897;28;20031;-53
2024/02/08 01:54:02;;;;;;;3.30;1.13;;;20.50;34.20;;;;;;5054712;28;20082;-55
2024/02/08 01:56:29;;;;;;;1.33;0.73;;;20.50;34.20;;;;;;5053803;28;20057;-55
2024/02/08 01:58:58;;;;;;;3.08;1.17;;;20.40;34.10;;;;;;5054744;28;20443;-56
2024/02/08 02:01:26;;;;;;;2.42;0.90;;;20.50;34.20;;;;;;5053774;28;20041;-56
2024/02/08 02:03:52;;;;;;;2.72;0.95;;;20.50;34.20;;;;;;5052323;28;20025;-54
2024/02/08 02:06:17;;;;;;;2.60;1.13;;;20.40;34.10;;;;;;5054347;28;20435;-55
2024/02/08 02:08:57;;;;;;;2.22;0.82;;;20.40;34.10;;;;;;5054409;28;20112;-55
2024/02/08 02:11:42;;;;;;;3.17;1.15;;;20.40;34.10;;;;;;5053297;28;20072;-55
2024/02/08 02:14:09;;;;;;;2.80;0.95;;;20.40;34.10;;;;;;5053686;28;20080;-52
2024/02/08 02:16:35;;;;;;;1.98;0.80;;;20.40;34.10;;;;;;5051146;28;20040;-55
2024/02/08 02:19:03;;;;;;;3.67;1.08;;;20.40;34.10;;;;;;5053888;28;20439;-54
2024/02/08 02:21:29;;;;;;;3.35;0.90;;;20.40;34.10;;;;;;5053745;28;20068;-54
2024/02/08 02:23:55;;;;;;;3.08;1.13;;;20.40;34.10;;;;;;5054034;28;20406;-55
2024/02/08 02:26:22;;;;;;;2.15;0.90;;;20.40;34.10;;;;;;5053203;28;20083;-52
2024/02/08 02:28:48;;;;;;;2.15;0.73;;;20.40;34.10;;;;;;5053937;28;20086;-51
2024/02/08 02:31:15;;;;;;;2.45;0.90;;;20.40;34.10;;;;;;5054095;28;20033;-56
2024/02/08 02:33:42;;;;;;;3.05;1.10;;;20.40;34.10;;;;;;5053434;28;20033;-53
2024/02/08 02:36:08;;;;;;;2.92;0.73;;;20.40;34.10;;;;;;5056078;28;20025;-55
2024/02/08 02:38:37;;;;;;;2.00;0.90;;;20.40;34.10;;;;;;5053792;28;20455;-54
2024/02/08 02:41:06;;;;;;;2.60;0.95;;;20.30;34.10;;;;;;5053148;28;20410;-55
2024/02/08 02:43:37;;;;;;;2.33;0.93;;;20.30;34.10;;;;;;5053209;28;20435;-52
2024/02/08 02:46:05;;;;;;;2.17;1.00;;;20.30;34.10;;;;;;5053443;28;20052;-55
2024/02/08 02:48:32;;;;;;;1.75;0.88;;;20.30;34.10;;;;;;5053811;28;20051;-52
2024/02/08 02:50:58;;;;;;;1.88;0.88;;;20.30;34.10;;;;;;5053300;28;20082;-53
2024/02/08 02:53:24;;;;;;;1.90;0.82;;;20.30;34.20;;;;;;5053146;28;20044;-53
2024/02/08 02:55:50;;;;;;;3.70;1.10;;;20.30;34.20;;;;;;5053518;28;20029;-52
2024/02/08 02:58:16;;;;;;;1.85;0.80;;;20.30;34.20;;;;;;5052989;28;20351;-55
2024/02/08 03:00:41;;;;;;;2.72;1.13;;;20.30;34.20;;;;;;5051482;28;20082;-55
2024/02/08 03:03:07;;;;;;;1.85;0.80;;;20.30;34.30;;;;;;5053110;28;20420;-52
2024/02/08 03:05:39;;;;;;;2.53;0.88;;;20.30;34.20;;;;;;5052949;28;20516;-53
2024/02/08 03:08:05;;;;;;;2.80;0.90;;;20.30;34.20;;;;;;5052733;28;20132;-55
2024/02/08 03:10:32;;;;;;;2.38;0.90;;;20.30;34.30;;;;;;5052340;28;20572;-56
2024/02/08 03:12:58;;;;;;;1.77;0.80;;;20.30;34.30;;;;;;5052786;28;20470;-52
2024/02/08 03:15:24;;;;;;;2.25;0.90;;;20.30;34.30;;;;;;5052946;28;20024;-53
2024/02/08 03:17:50;;;;;;;2.05;1.10;;;20.30;34.30;;;;;;5052782;28;20036;-52
2024/02/08 03:20:29;;;;;;;2.25;0.82;;;20.30;34.30;;;;;;5052407;28;20537;-54
2024/02/08 03:22:58;;;;;;;2.17;0.82;;;20.30;34.30;;;;;;5049430;28;20029;-56
2024/02/08 03:25:25;;;;;;;2.00;0.70;;;20.20;34.30;;;;;;5053482;28;20057;-54
2024/02/08 03:27:51;;;;;;;3.47;1.00;;;20.30;34.30;;;;;;5052639;28;20031;-54
2024/02/08 03:30:30;;;;;;;1.75;0.90;;;20.30;34.30;;;;;;5052894;28;20020;-54
2024/02/08 03:32:57;;;;;;;2.10;0.90;;;20.20;34.30;;;;;;5052352;28;20025;-52
2024/02/08 03:35:27;;;;;;;2.95;1.10;;;20.20;34.30;;;;;;5052849;28;20029;-53
2024/02/08 03:38:00;;;;;;;1.23;0.70;;;20.20;34.30;;;;;;5052511;28;20029;-55
2024/02/08 03:40:31;;;;;;;1.58;0.60;;;20.20;34.30;;;;;;5052012;28;20431;-54
2024/02/08 03:42:57;;;;;;;2.65;0.90;;;20.20;34.30;;;;;;5052202;28;20037;-53
2024/02/08 03:45:23;;;;;;;1.27;0.68;;;20.20;34.30;;;;;;5052464;28;20031;-52
2024/02/08 03:47:50;;;;;;;2.03;0.90;;;20.20;34.30;;;;;;5052233;28;20025;-55
2024/02/08 03:50:16;;;;;;;2.70;0.98;;;20.20;35.00;;;;;;5052485;28;20052;-55
2024/02/08 03:52:42;;;;;;;2.17;0.90;;;20.20;34.40;;;;;;5052289;28;22028;-54
2024/02/08 03:55:08;;;;;;;2.50;0.98;;;20.20;34.40;;;;;;5051785;28;20057;-56
2024/02/08 03:57:37;;;;;;;2.60;0.95;;;20.20;34.40;;;;;;5052594;28;20043;-54
2024/02/08 04:00:13;;;;;;;2.00;0.90;;;20.20;34.40;;;;;;5051948;28;20041;-50
2024/02/08 04:02:43;;;;;;;2.22;0.80;;;20.20;34.40;;;;;;5052412;28;20116;-54
2024/02/08 04:05:21;;;;;;;1.73;0.90;;;20.20;34.40;;;;;;5051797;28;20025;-55
2024/02/08 04:07:59;;;;;;;1.75;0.70;;;20.10;34.40;;;;;;5051859;28;20021;-54
2024/02/08 04:54:11;;;;;;;2.45;0.60;;;20.00;34.60;;;;;;5055840;28;20159;-53
2024/02/08 04:56:36;;;;;;;2.67;0.90;;;20.00;34.60;;;;;;5055277;28;20061;-54
2024/02/08 04:59:05;;;;;;;2.80;1.00;;;20.00;34.60;;;;;;5055405;28;20404;-51
2024/02/08 05:01:32;;;;;;;2.42;0.68;;;20.00;34.60;;;;;;5055632;28;20455;-53
2024/02/08 05:03:59;;;;;;;2.13;0.80;;;20.00;34.60;;;;;;5055037;28;20052;-58
2024/02/08 05:06:25;;;;;;;2.30;0.88;;;20.00;34.60;;;;;;5047135;28;20037;-52
2024/02/08 05:08:57;;;;;;;2.17;0.80;;;20.00;34.60;;;;;;5055389;28;20021;-55
2024/02/08 05:11:24;;;;;;;2.25;1.10;;;20.00;34.60;;;;;;5055057;28;20036;-53
2024/02/08 05:13:50;;;;;;;1.70;0.80;;;20.00;34.60;;;;;;5055124;28;20039;-53
2024/02/08 05:16:19;;;;;;;2.42;0.90;;;20.00;34.60;;;;;;5055145;28;20112;-54
2024/02/08 05:18:47;;;;;;;2.85;0.90;;;20.00;34.60;;;;;;5053988;28;20052;-57
2024/02/08 05:21:15;;;;;;;2.13;0.77;;;20.00;34.60;;;;;;5055127;28;20047;-54
2024/02/08 05:23:42;;;;;;;2.45;1.13;;;20.00;34.60;;;;;;5055239;28;20036;-55
2024/02/08 05:26:18;;;;;;;2.40;0.80;;;20.00;34.60;;;;;;5054706;28;20470;-55
2024/02/08 05:28:47;;;;;;;3.17;0.90;;;20.00;34.60;;;;;;5053601;28;20051;-56
2024/02/08 05:31:12;;;;;;;2.42;0.73;;;20.00;34.60;;;;;;5054534;28;20037;-54
2024/02/08 05:33:40;;;;;;;2.80;1.02;;;20.00;34.60;;;;;;5054349;28;20569;-55
2024/02/08 05:36:12;;;;;;;1.52;0.70;;;20.00;34.60;;;;;;5053850;28;20048;-55
2024/02/08 05:38:41;;;;;;;2.47;0.85;;;20.00;34.60;;;;;;5054054;28;20044;-55
2024/02/08 05:41:09;;;;;;;2.88;0.80;;;20.00;34.60;;;;;;5052717;28;20037;-54
2024/02/08 05:43:44;;;;;;;3.20;1.08;;;19.90;34.50;;;;;;5054847;28;20040;-56
2024/02/08 05:46:19;;;;;;;4.43;1.30;;;20.00;34.60;;;;;;5053713;28;20021;-55
2024/02/08 05:48:51;;;;;;;2.45;1.10;;;19.90;34.60;;;;;;5055075;28;20106;-54
2024/02/08 05:51:20;;;;;;;3.35;1.17;;;19.90;34.50;;;;;;5054118;28;20025;-53
2024/02/08 05:53:48;;;;;;;2.63;0.80;;;19.90;34.50;;;;;;5054271;28;20036;-53
2024/02/08 05:56:15;;;;;;;2.65;0.98;;;19.90;34.60;;;;;;5053652;28;20059;-53
2024/02/08 05:58:44;;;;;;;1.58;0.60;;;19.90;35.20;;;;;;5054297;28;20443;-52
2024/02/08 06:01:16;;;;;;;1.63;0.70;;;19.90;34.50;;;;;;5053761;28;20044;-50
2024/02/08 06:03:46;;;;;;;2.28;0.82;;;19.90;34.50;;;;;;5053041;28;20024;-54
2024/02/08 06:06:26;;;;;;;2.25;0.88;;;19.90;34.50;;;;;;5054997;28;20450;-53
2024/02/08 06:08:56;;;;;;;3.40;1.02;;;19.90;34.60;;;;;;5055850;28;20025;-52
2024/02/08 06:11:23;;;;;;;2.15;0.88;;;19.90;34.70;;;;;;5056151;28;20439;-55
2024/02/08 06:14:06;;;;;;;3.53;1.27;;;19.90;34.60;;;;;;5055767;28;20082;-57
2024/02/08 06:16:47;;;;;;;2.58;1.05;;;19.90;34.60;;;;;;5041571;28;20032;-56
2024/02/08 06:19:17;;;;;;;1.35;0.75;;;19.90;34.60;;;;;;5043142;28;20099;-55
2024/02/08 06:21:47;;;;;;;3.40;1.20;;;19.90;34.60;;;;;;5049851;28;20037;-55
2024/02/08 06:26:55;;;;;;;2.92;1.20;;;19.90;34.60;;;;;;5053436;28;20313;-54
2024/02/08 06:29:47;;;;;;;3.70;1.13;;;19.90;34.60;;;;;;5054541;28;20103;-55
2024/02/08 06:35:11;;;;;;;2.83;1.00;;;19.80;34.50;;;;;;5054959;28;20025;-55
2024/02/08 06:37:45;;;;;;;3.15;1.02;;;19.80;34.50;;;;;;5053323;28;20511;-55
2024/02/08 06:40:24;;;;;;;2.13;1.10;;;19.80;34.60;;;;;;5054441;28;20029;-54
2024/02/08 06:48:14;;;;;;;2.45;0.93;;;19.80;34.50;;;;;;5054621;28;20029;-54
2024/02/08 07:37:18;;;;;;;3.63;1.40;;;19.70;34.90;;;;;;5055851;28;20041;-58
2024/02/08 07:39:53;;;;;;;3.15;1.50;;;19.70;34.30;;;;;;5055287;28;20037;-57
2024/02/08 07:42:29;;;;;;;3.30;1.60;;;19.70;35.00;;;;;;5055227;28;20091;-56
2024/02/08 07:45:07;;;;;;;3.20;1.60;;;19.70;34.40;;;;;;5054883;28;20029;-57
2024/02/08 07:47:34;;;;;;;3.88;1.40;;;19.70;34.50;;;;;;5055143;28;20048;-56
2024/02/08 07:50:05;;;;;;;3.13;1.38;;;19.70;34.50;;;;;;5055194;28;20025;-58
2024/02/08 07:52:45;;;;;;;3.35;1.85;;;19.70;34.50;;;;;;5055135;28;20039;-58
2024/02/08 07:55:20;;;;;;;2.92;1.70;;;19.70;34.60;;;;;;5054693;28;20424;-59
2024/02/08 07:57:57;;;;;;;3.90;1.67;;;19.70;34.60;;;;;;5055338;28;20512;-52
2024/02/08 08:00:41;;;;;;;4.55;1.77;;;19.70;34.60;;;;;;5054959;28;20037;-57
2024/02/08 08:03:08;;;;;;;;;;;19.70;34.60;;;;;;5055437;28;20036;-57
2024/02/08 08:05:41;;;;;;;4.63;1.60;;;19.70;34.60;;;;;;5055277;28;20016;-57
2024/02/08 08:08:28;;;;;;;2.95;1.77;;;19.70;34.70;;;;;;5056301;28;20435;-54
2024/02/08 08:11:15;;;;;;;3.35;1.33;;;19.70;34.60;;;;;;5061284;28;20466;-57
2024/02/08 08:14:06;;;;;;;3.58;1.60;;;19.70;34.70;;;;;;5053283;28;20080;-55
2024/02/08 08:19:07;;;;;;;3.53;1.70;;;19.70;34.70;;;;;;5061589;28;20076;-55
2024/02/08 08:22:50;;;;;;;5.32;1.80;;;19.70;34.70;;;;;;5060881;28;20467;-56
2024/02/08 08:24:25;;;;;;;4.35;1.77;;;19.70;34.70;;;;;;5057257;28;20202;-57
2024/02/08 08:27:06;;;;;;;2.97;1.77;;;19.70;34.70;;;;;;5060348;28;20106;-57
2024/02/08 08:29:42;;;;;;;3.60;1.50;;;19.70;34.70;;;;;;5041076;28;20049;-56
2024/02/08 08:38:27;;;;;;;4.43;1.48;;;19.70;34.80;;;;;;5041140;28;20100;-57
2024/02/08 08:40:48;;;;;;;4.50;1.75;;;19.70;34.90;;;;;;5040968;28;20037;-55
2024/02/08 08:43:24;;;;;;;4.13;1.95;;;19.70;35.50;;;;;;5038112;28;20069;-58
2024/02/08 08:45:59;;;;;;;4.53;1.70;;;19.70;34.90;;;;;;5037991;28;20060;-56
2024/02/08 08:48:30;;;;;;;;;;;19.70;34.80;;;;;;5039867;28;20091;-55
2024/02/08 08:51:10;;;;;;;4.20;1.80;;;19.70;34.80;;;;;;5041215;28;19920;-59
2024/02/08 08:53:43;;;;;;;4.03;1.75;;;19.80;34.90;;;;;;5041106;28;20108;-57
2024/02/08 08:56:13;;;;;;;3.15;1.45;;;19.80;34.80;;;;;;5041121;28;20519;-56
2024/02/08 08:58:39;;;;;;;4.55;1.33;;;19.90;34.90;;;;;;5041258;28;20104;-59
2024/02/08 09:01:15;;;;;;;3.65;1.30;;;20.00;34.90;;;;;;5040998;28;20511;-56
2024/02/08 09:06:41;;;;;;;2.33;1.17;;;20.10;34.90;;;;;;5040530;28;20030;-57
2024/02/08 09:11:57;;;;;;;2.95;1.52;;;20.20;34.70;;;;;;5041200;28;20330;-57
2024/02/08 09:14:32;;;;;;;4.55;1.88;;;20.30;34.70;;;;;;5041726;28;20392;-57
2024/02/08 09:17:02;;;;;;;4.70;1.77;;;20.30;34.70;;;;;;5040491;28;20029;-58
2024/02/08 09:19:29;;;;;;;3.45;1.17;;;20.40;34.60;;;;;;5042036;28;20045;-58
2024/02/08 09:22:02;;;;;;;3.50;1.58;;;20.40;34.60;;;;;;5038695;28;20116;-57
2024/02/08 09:24:28;;;;;;;3.92;1.50;;;20.40;34.50;;;;;;5042832;28;20144;-58
2024/02/08 09:27:15;;;;;;;4.30;1.50;;;20.40;34.40;;;;;;5037393;28;20037;-57
2024/02/08 09:29:50;;;;;;;3.83;1.30;;;20.50;34.40;;;;;;5037131;28;20025;-55
2024/02/08 09:32:43;;;;;;;3.03;1.52;;;20.50;34.30;;;;;;5037798;28;20041;-57
2024/02/08 09:35:16;;;;;;;3.88;1.20;;;20.60;34.30;;;;;;5055088;28;20029;-55
2024/02/08 09:37:46;;;;;;;4.25;1.38;;;20.60;34.20;;;;;;5057737;28;20029;-57
2024/02/08 09:42:58;;;;;;;3.00;1.15;;;20.60;34.10;;;;;;5034681;28;20045;-57
2024/02/08 09:48:05;;;;;;;3.15;1.35;;;20.60;34.10;;;;;;5036161;28;20033;-55
2024/02/08 09:50:36;;;;;;;;;;;20.60;34.00;;;;;;5037814;28;20049;-54
2024/02/08 09:53:18;;;;;;;3.47;1.20;;;20.70;34.00;;;;;;5035754;28;19909;-58
2024/02/08 09:55:55;;;;;;;3.03;1.33;;;20.70;34.00;;;;;;5037151;28;20040;-57
2024/02/08 09:58:38;;;;;;;3.03;1.20;;;20.70;34.00;;;;;;5037458;28;20037;-58
2024/02/08 10:01:22;;;;;;;3.50;1.63;;;20.70;34.10;;;;;;5037472;28;20042;-57
2024/02/08 10:03:49;;;;;;;2.65;1.23;;;20.70;34.10;;;;;;5036893;28;20325;-56
2024/02/08 10:06:38;;;;;;;1.65;1.13;;;20.70;34.10;;;;;;5045681;28;20040;-56
2024/02/08 10:11:58;;;;;;;2.05;1.00;;;20.70;34.00;;;;;;5037826;28;20037;-57
2024/02/08 10:14:25;;;;;;;2.88;1.20;;;20.70;34.00;;;;;;5036752;28;20044;-57
2024/02/08 10:17:00;;;;;;;3.25;1.02;;;20.70;34.00;;;;;;5036674;28;20037;-56
2024/02/08 10:22:17;;;;;;;3.88;1.20;;;20.70;34.00;;;;;;5055984;28;20055;-53
2024/02/08 10:27:19;;;;;;;3.17;1.40;;;20.70;34.00;;;;;;5056031;28;20044;-54
2024/02/08 10:29:53;;;;;;;3.88;1.50;;;20.70;34.00;;;;;;5056393;28;20098;-57
2024/02/08 10:32:19;;;;;;;3.45;1.33;;;20.70;34.10;;;;;;5055872;28;20033;-57
2024/02/08 10:34:45;;;;;;;5.38;1.45;;;20.70;34.00;;;;;;5056410;28;20037;-56
2024/02/08 10:37:47;;;;;;;4.57;1.42;;;20.70;34.00;;;;;;5055527;28;20127;-57
2024/02/08 10:40:30;;;;;;;2.35;1.30;;;20.60;34.00;;;;;;5056217;28;20028;-57
2024/02/08 10:42:59;;;;;;;4.55;1.50;;;20.70;34.10;;;;;;5055963;28;20388;-53
2024/02/08 10:45:32;;;;;;;2.78;1.13;;;20.70;34.10;;;;;;5056274;28;20025;-57
2024/02/08 10:47:59;;;;;;;3.17;1.30;;;20.60;34.00;;;;;;5055876;28;20456;-58
2024/02/08 10:50:28;;;;;;;4.00;1.50;;;20.60;34.10;;;;;;5052012;28;20036;-56
2024/02/08 10:53:00;;;;;;;3.83;1.77;;;20.60;34.00;;;;;;5051948;28;20040;-55
2024/02/08 10:55:36;;;;;;;4.82;1.55;;;20.60;34.20;;;;;;5053433;28;20071;-56
2024/02/08 11:03:08;;;;;;;2.85;1.42;;;20.60;34.40;;;;;;5054200;28;20048;-56
2024/02/08 11:06:00;;;;;;;2.90;1.30;;;20.60;34.50;;;;;;5055206;28;20087;-56
2024/02/08 11:08:33;;;;;;;3.03;1.50;;;20.60;34.50;;;;;;5055710;28;20064;-57
2024/02/08 11:11:14;;;;;;;2.78;1.20;;;20.60;34.60;;;;;;5055867;28;20032;-57
2024/02/08 11:13:54;;;;;;;3.67;1.40;;;20.60;34.50;;;;;;5055182;28;20107;-59
2024/02/08 11:16:27;;;;;;;2.85;1.08;;;20.60;34.60;;;;;;5051649;28;20402;-57
2024/02/08 11:18:54;;;;;;;4.03;1.20;;;20.60;34.70;;;;;;5051115;28;20057;-52
2024/02/08 11:21:42;;;;;;;3.58;1.52;;;20.60;34.70;;;;;;5033444;28;20060;-50
2024/02/08 11:25:18;;;;;;;3.25;1.50;;;20.50;34.70;;;;;;5030235;28;20087;-53
2024/02/08 11:27:12;;;;;;;3.00;1.35;;;20.60;34.80;;;;;;5027552;28;20065;-51
2024/02/08 11:29:45;;;;;;;3.20;1.25;;;20.60;34.80;;;;;;5035278;28;20029;-53
2024/02/08 11:32:16;;;;;;;3.33;1.60;;;20.50;34.80;;;;;;5035046;28;20041;-50
2024/02/08 11:34:44;;;;;;;3.97;1.60;;;20.50;34.80;;;;;;5035459;28;20033;-53
2024/02/08 11:37:15;;;;;;;2.72;1.50;;;20.50;34.80;;;;;;5035746;28;20095;-54
2024/02/08 11:39:46;;;;;;;3.63;1.63;;;20.50;34.80;;;;;;5034623;28;20034;-53
2024/02/08 11:42:17;;;;;;;2.67;1.13;;;20.50;34.70;;;;;;5033995;28;20075;-55
2024/02/08 11:44:44;;;;;;;4.50;1.55;;;20.50;34.70;;;;;;5033438;28;20029;-50
2024/02/08 11:47:19;;;;;;;4.35;1.40;;;20.50;34.70;;;;;;5034146;28;20029;-51
2024/02/08 11:50:01;;;;;;;3.58;1.67;;;20.50;34.60;;;;;;5033700;28;20025;-55
2024/02/08 11:52:28;;;;;;;3.15;1.48;;;20.50;34.60;;;;;;5035081;28;20035;-53
2024/02/08 11:55:05;;;;;;;3.53;1.77;;;20.50;34.60;;;;;;5035211;28;20037;-52
2024/02/08 11:57:40;;;;;;;3.38;1.40;;;20.50;34.60;;;;;;5035241;28;20113;-51
2024/02/08 12:00:15;;;;;;;2.75;1.30;;;20.50;34.60;;;;;;5034450;28;20025;-50
2024/02/08 12:02:57;;;;;;;3.53;1.45;;;20.50;34.60;;;;;;5035038;28;20033;-52
2024/02/08 12:05:27;;;;;;;5.63;1.20;;;20.50;34.60;;;;;;5034982;28;20068;-51
2024/02/08 12:07:57;;;;;;;2.83;1.40;;;20.50;34.60;;;;;;5034895;28;20037;-54
2024/02/08 12:10:23;;;;;;;3.20;1.35;;;20.60;34.70;;;;;;5034902;28;20041;-54
2024/02/08 12:12:56;;;;;;;3.60;1.77;;;20.50;34.60;;;;;;5034807;28;20091;-54
2024/02/08 12:15:21;;;;;;;3.45;1.60;;;20.50;34.60;;;;;;5034473;28;20040;-52
2024/02/08 12:17:52;;;;;;;3.75;1.30;;;20.50;34.60;;;;;;5034948;28;20029;-52
2024/02/08 12:20:19;;;;;;;3.95;1.67;;;20.60;34.60;;;;;;5048969;28;20486;-54
2024/02/08 12:22:54;;;;;;;4.70;1.80;;;20.50;34.60;;;;;;5054309;28;20548;-51
2024/02/08 12:25:20;;;;;;;3.15;1.35;;;20.60;34.60;;;;;;5055208;28;20065;-51
2024/02/08 12:27:51;;;;;;;3.75;1.70;;;20.60;34.60;;;;;;5054926;28;20060;-53
2024/02/08 12:30:22;;;;;;;2.75;1.38;;;20.60;34.60;;;;;;5053962;28;20048;-52
2024/02/08 12:32:54;;;;;;;2.72;1.35;;;20.60;34.60;;;;;;5054860;28;20025;-50
2024/02/08 12:35:21;;;;;;;4.43;1.70;;;20.50;34.50;;;;;;5054731;28;20102;-53
2024/02/08 12:37:48;;;;;;;3.40;1.50;;;20.60;34.50;;;;;;5054626;28;20059;-54
2024/02/08 12:40:16;;;;;;;4.10;1.95;;;20.60;34.50;;;;;;5054787;28;20148;-53
2024/02/08 12:42:42;;;;;;;3.63;1.40;;;20.60;34.50;;;;;;5054363;28;20438;-51
2024/02/08 12:45:12;;;;;;;3.33;1.40;;;20.60;34.50;;;;;;5043270;28;20101;-54
2024/02/08 12:47:41;;;;;;;3.70;1.63;;;20.60;34.40;;;;;;5039244;28;20364;-49
2024/02/08 12:50:09;;;;;;;3.28;1.55;;;20.60;34.40;;;;;;5034470;28;20052;-53
2024/02/08 12:52:41;;;;;;;2.50;1.25;;;20.60;34.40;;;;;;5034548;28;20040;-54
2024/02/08 12:55:13;;;;;;;2.50;1.30;;;20.60;34.40;;;;;;5043021;28;20171;-51
2024/02/08 12:57:40;;;;;;;3.17;1.35;;;20.60;34.40;;;;;;5058461;28;20040;-50
2024/02/08 13:00:09;;;;;;;2.60;1.30;;;20.60;34.40;;;;;;5056816;28;20048;-53
2024/02/08 13:02:35;;;;;;;3.33;1.27;;;20.60;34.40;;;;;;5032199;28;20038;-53
2024/02/08 13:05:02;;;;;;;3.03;1.20;;;20.60;34.30;;;;;;5038389;28;20036;-51
2024/02/08 13:07:29;;;;;;;2.60;1.10;;;20.60;34.30;;;;;;5037737;28;20448;-55
2024/02/08 13:10:14;;;;;;;2.40;1.30;;;20.60;34.30;;;;;;5038407;28;20056;-56
2024/02/08 13:12:40;;;;;;;1.98;1.13;;;20.60;34.30;;;;;;5056192;28;20029;-55
2024/02/08 13:15:06;;;;;;;2.50;1.35;;;20.60;34.30;;;;;;5057909;28;20033;-54
2024/02/08 13:17:33;;;;;;;2.90;1.27;;;20.60;34.20;;;;;;5057478;28;20056;-52
2024/02/08 13:20:11;;;;;;;2.45;1.17;;;20.60;34.20;;;;;;5040661;28;20048;-53
2024/02/08 13:22:38;;;;;;;2.55;1.30;;;20.60;34.20;;;;;;5057771;28;20037;-51
2024/02/08 13:25:11;;;;;;;2.83;1.27;;;20.60;34.10;;;;;;5057188;28;20494;-53
2024/02/08 13:27:39;;;;;;;3.03;1.13;;;20.60;34.10;;;;;;5017649;28;20033;-50
2024/02/08 13:30:15;;;;;;;3.38;1.20;;;20.60;34.10;;;;;;5017946;28;20069;-53
2024/02/08 13:32:45;;;;;;;2.15;1.23;;;20.60;34.10;;;;;;5035414;28;20036;-53
2024/02/08 13:35:18;;;;;;;3.17;1.20;;;20.60;34.10;;;;;;5037190;28;20078;-55
2024/02/08 13:37:55;;;;;;;2.17;0.90;;;20.60;34.10;;;;;;5039055;28;20029;-51
2024/02/08 13:40:24;;;;;;;3.47;1.13;;;20.60;34.10;;;;;;5035494;28;20130;-53
2024/02/08 13:42:56;;;;;;;2.65;1.00;;;20.60;34.10;;;;;;5036947;28;20351;-53
2024/02/08 13:45:24;;;;;;;2.17;0.93;;;20.60;34.10;;;;;;5037546;28;20428;-54
2024/02/08 13:47:54;;;;;;;2.60;0.98;;;20.60;34.10;;;;;;5036897;28;20033;-54
2024/02/08 13:50:22;;;;;;;2.05;0.98;;;20.60;34.10;;;;;;5049884;28;20040;-51
2024/02/08 13:52:52;;;;;;;1.17;0.63;;;20.60;34.10;;;;;;5038952;28;20107;-54
2024/02/08 13:55:19;;;;;;;1.75;0.82;;;20.60;34.10;;;;;;5038255;28;20072;-53
2024/02/08 13:57:50;;;;;;;1.67;0.70;;;20.60;34.10;;;;;;5040748;28;20044;-54
2024/02/08 14:00:20;;;;;;;1.10;0.73;;;20.60;34.00;;;;;;5036909;28;20345;-54
2024/02/08 14:02:51;;;;;;;1.70;0.73;;;20.60;34.00;;;;;;5037853;28;20037;-53
2024/02/08 14:05:23;;;;;;;0.98;0.50;;;20.60;34.00;;;;;;5051511;28;20040;-52
2024/02/08 14:07:54;;;;;;;1.45;0.47;;;20.60;34.00;;;;;;5050482;28;20143;-55
2024/02/08 14:10:33;;;;;;;2.47;0.80;;;20.60;34.00;;;;;;5036906;28;20104;-52
2024/02/08 14:13:06;;;;;;;2.08;0.70;;;20.50;33.90;;;;;;5036723;28;20038;-53
2024/02/08 14:15:33;;;;;;;1.33;0.75;;;20.60;33.90;;;;;;5039403;28;20095;-55
2024/02/08 14:21:00;;;;;;;1.95;0.75;;;20.60;33.90;;;;;;5017056;28;20054;-53
2024/02/08 14:23:30;;;;;;;1.40;0.50;;;20.60;33.90;;;;;;5016459;28;20448;-53
2024/02/08 14:26:09;;;;;;;1.75;0.70;;;20.60;33.80;;;;;;5024979;28;20061;-55
2024/02/08 14:28:42;;;;;;;1.05;0.55;;;20.60;33.90;;;;;;5052710;28;20412;-56
2024/02/08 14:31:09;;;;;;;0.90;0.60;;;20.60;33.90;;;;;;5036443;28;20435;-53
2024/02/08 14:33:35;;;;;;;0.80;0.50;;;20.50;33.90;;;;;;5035887;28;20075;-55
2024/02/08 14:36:09;;;;;;;0.90;0.50;;;20.60;33.90;;;;;;5035311;28;20025;-51
2024/02/08 14:38:40;;;;;;;1.25;0.60;;;20.60;33.90;;;;;;5036490;28;20026;-54
2024/02/08 14:43:54;;;;;;;1.23;0.70;;;20.60;33.90;;;;;;5036126;28;20569;-54
2024/02/08 14:46:21;;;;;;;1.40;0.50;;;20.60;33.90;;;;;;5036472;28;20096;-51
2024/02/08 14:48:51;;;;;;;1.13;0.40;;;20.50;33.90;;;;;;5035664;28;20030;-52
2024/02/08 14:53:53;;;;;;;0.88;0.47;;;20.60;33.90;;;;;;5035074;28;20108;-53
2024/02/08 14:56:20;;;;;;;1.48;0.52;;;20.50;33.90;;;;;;5035070;28;20034;-53
2024/02/08 14:59:19;;;;;;;1.90;0.70;;;20.60;33.90;;;;;;5043876;28;20479;-63
2024/02/08 15:01:39;;;;;;;1.40;0.60;;;20.50;33.90;;;;;;5025431;28;20126;-55
2024/02/08 15:04:17;;;;;;;1.52;0.65;;;20.50;33.90;;;;;;5016286;28;20398;-52
2024/02/08 15:12:52;;;;;;;1.15;0.70;;;20.60;34.40;;;;;;5016229;28;20037;-56
2024/02/08 15:14:56;;;;;;;2.58;0.93;;;20.60;34.50;;;;;;5027045;28;20444;-57
2024/02/08 15:17:26;;;;;;;1.15;0.60;;;20.60;34.60;;;;;;5034760;28;20037;-57
2024/02/08 15:19:52;;;;;;;1.20;0.65;;;20.60;34.70;;;;;;5044987;28;20411;-58
2024/02/08 15:24:57;;;;;;;0.63;0.43;;;20.60;34.70;;;;;;5054031;28;20112;-57
2024/02/08 15:27:34;;;;;;;1.80;0.60;;;20.60;34.60;;;;;;5054811;28;20463;-57
2024/02/08 15:30:15;;;;;;;1.05;0.50;;;20.70;34.70;;;;;;5053036;28;20067;-57
2024/02/08 15:32:58;;;;;;;1.55;0.60;;;20.70;34.50;;;;;;5053877;28;20029;-58
2024/02/08 15:35:36;;;;;;;1.65;0.70;;;20.80;34.50;;;;;;5053999;28;20045;-57
2024/02/08 15:40:54;;;;;;;;;;;20.90;34.40;;;;;;5053791;28;20052;-58